createdAt,value
2023-05-14T00:00:29.689Z,11.93
2023-05-14T00:02:56.685Z,10.68
2023-05-14T00:05:23.725Z,10.82
2023-05-14T00:07:50.618Z,11.88
2023-05-14T00:10:19.065Z,11.40
2023-05-14T00:12:46.010Z,11.98
2023-05-14T00:15:12.839Z,10.93
2023-05-14T00:17:39.828Z,11.88
2023-05-14T00:20:07.200Z,9.98
2023-05-14T00:22:34.495Z,11.27
2023-05-14T00:25:01.353Z,11.82
2023-05-14T00:27:28.160Z,12.10
2023-05-14T00:29:55.031Z,11.85
2023-05-14T00:32:21.859Z,12.20
2023-05-14T00:34:48.836Z,11.57
2023-05-14T00:37:15.643Z,12.25
2023-05-14T00:39:42.495Z,11.20
2023-05-14T00:42:09.445Z,12.45
2023-05-14T00:44:36.397Z,11.45
2023-05-14T00:47:03.349Z,12.25
2023-05-14T00:49:30.593Z,10.93
2023-05-14T00:51:59.083Z,11.52
2023-05-14T00:54:26.309Z,12.30
2023-05-14T00:56:53.336Z,11.95
2023-05-14T00:59:20.270Z,12.40
2023-05-14T01:01:47.166Z,12.00
2023-05-14T01:04:13.989Z,11.68
2023-05-14T01:07:01.911Z,13.00
2023-05-14T01:09:31.517Z,11.38
2023-05-14T01:12:18.322Z,11.30
2023-05-14T01:15:06.622Z,11.68
2023-05-14T01:17:33.927Z,11.77
2023-05-14T01:20:00.880Z,12.35
2023-05-14T01:22:27.727Z,12.52
2023-05-14T01:24:54.618Z,12.60
2023-05-14T01:27:39.184Z,12.57
2023-05-14T01:30:11.370Z,12.32
2023-05-14T01:32:39.140Z,12.52
2023-05-14T01:35:07.334Z,14.15
2023-05-14T01:37:34.250Z,13.50
2023-05-14T01:40:01.104Z,13.05
2023-05-14T01:42:27.964Z,13.88
2023-05-14T01:44:55.532Z,14.02
2023-05-14T01:47:22.698Z,14.00
2023-05-14T01:49:49.811Z,13.13
2023-05-14T01:52:17.068Z,14.10
2023-05-14T01:54:43.868Z,14.70
2023-05-14T01:57:10.764Z,15.25
2023-05-14T01:59:37.560Z,14.43
2023-05-14T02:02:04.629Z,15.80
2023-05-14T02:04:31.492Z,15.15
2023-05-14T02:06:58.677Z,14.48
2023-05-14T02:09:25.655Z,15.93
2023-05-14T02:11:52.428Z,15.75
2023-05-14T02:14:19.276Z,15.85
2023-05-14T02:16:46.258Z,15.35
2023-05-14T02:19:13.246Z,15.82
2023-05-14T02:21:40.229Z,16.27
2023-05-14T02:24:07.139Z,16.80
2023-05-14T02:26:34.220Z,15.13
2023-05-14T02:29:01.169Z,15.40
2023-05-14T02:31:27.983Z,14.88
2023-05-14T02:33:54.814Z,15.35
2023-05-14T02:36:21.633Z,13.95
2023-05-14T02:38:48.548Z,16.05
2023-05-14T02:41:15.305Z,14.60
2023-05-14T02:43:42.138Z,14.68
2023-05-14T02:46:09.072Z,15.77
2023-05-14T02:48:35.866Z,15.60
2023-05-14T02:51:02.751Z,15.85
2023-05-14T02:53:29.598Z,14.57
2023-05-14T02:55:56.394Z,15.98
2023-05-14T02:58:26.471Z,14.45
2023-05-14T03:00:55.377Z,14.32
2023-05-14T03:03:22.733Z,14.35
2023-05-14T03:05:50.160Z,14.65
2023-05-14T03:08:16.954Z,15.25
2023-05-14T03:10:43.738Z,14.55
2023-05-14T03:13:10.660Z,14.77
2023-05-14T03:15:37.467Z,14.35
2023-05-14T03:18:04.349Z,15.43
2023-05-14T03:20:31.101Z,15.02
2023-05-14T03:22:58.013Z,14.65
2023-05-14T03:25:24.809Z,15.68
2023-05-14T03:27:51.594Z,15.18
2023-05-14T03:30:18.491Z,15.70
2023-05-14T03:32:45.470Z,15.27
2023-05-14T03:35:12.250Z,15.07
2023-05-14T03:37:39.075Z,16.17
2023-05-14T03:40:06.780Z,14.88
2023-05-14T03:42:36.416Z,14.07
2023-05-14T03:45:03.462Z,14.57
2023-05-14T03:47:30.337Z,14.13
2023-05-14T03:49:58.085Z,15.05
2023-05-14T03:52:24.935Z,13.93
2023-05-14T03:54:51.866Z,14.68
2023-05-14T03:57:18.651Z,14.43
2023-05-14T03:59:45.549Z,14.02
2023-05-14T04:02:13.243Z,13.93
2023-05-14T04:04:41.085Z,14.63
2023-05-14T04:07:08.911Z,15.75
2023-05-14T04:09:35.909Z,14.52
2023-05-14T04:12:02.795Z,13.95
2023-05-14T04:14:29.647Z,14.15
2023-05-14T04:16:56.496Z,13.65
2023-05-14T04:19:23.759Z,13.95
2023-05-14T04:21:50.674Z,14.82
2023-05-14T04:24:17.520Z,14.55
2023-05-14T04:26:44.327Z,13.48
2023-05-14T04:29:11.119Z,13.20
2023-05-14T04:31:37.989Z,13.43
2023-05-14T04:34:04.806Z,13.70
2023-05-14T04:36:31.656Z,13.35
2023-05-14T04:38:58.427Z,12.88
2023-05-14T04:41:25.360Z,13.13
2023-05-14T04:43:53.569Z,13.07
2023-05-14T04:46:20.622Z,13.48
2023-05-14T04:48:48.298Z,13.45
2023-05-14T04:51:15.064Z,12.93
2023-05-14T04:53:41.977Z,13.35
2023-05-14T04:56:08.727Z,14.02
2023-05-14T04:58:35.635Z,14.77
2023-05-14T05:01:04.936Z,14.65
2023-05-14T05:03:32.281Z,15.35
2023-05-14T05:05:59.106Z,13.98
2023-05-14T05:08:26.410Z,15.95
2023-05-14T05:10:53.221Z,13.70
2023-05-14T05:13:21.239Z,13.82
2023-05-14T05:15:48.084Z,13.73
2023-05-14T05:18:15.006Z,14.70
2023-05-14T05:20:41.949Z,13.75
2023-05-14T05:23:08.699Z,13.52
2023-05-14T05:25:35.556Z,13.25
2023-05-14T05:28:02.467Z,13.07
2023-05-14T05:30:30.224Z,12.73
2023-05-14T05:32:57.634Z,13.65
2023-05-14T05:35:27.011Z,12.00
2023-05-14T05:37:53.859Z,11.95
2023-05-14T05:40:20.744Z,12.18
2023-05-14T05:42:47.566Z,12.35
2023-05-14T05:45:14.348Z,11.85
2023-05-14T05:47:41.261Z,12.88
2023-05-14T05:50:09.732Z,10.38
2023-05-14T05:52:36.702Z,11.30
2023-05-14T05:55:03.805Z,11.25
2023-05-14T05:57:30.686Z,12.77
2023-05-14T05:59:58.078Z,10.52
2023-05-14T06:02:25.270Z,11.48
2023-05-14T06:04:53.207Z,11.68
2023-05-14T06:07:20.179Z,12.48
2023-05-14T06:09:47.047Z,10.88
2023-05-14T06:12:13.823Z,12.32
2023-05-14T06:14:40.632Z,11.05
2023-05-14T06:17:07.690Z,11.68
2023-05-14T06:19:34.530Z,11.15
2023-05-14T06:22:01.283Z,11.30
2023-05-14T06:24:28.059Z,12.40
2023-05-14T06:26:55.081Z,11.95
2023-05-14T06:29:21.931Z,12.15
2023-05-14T06:31:48.894Z,12.77
2023-05-14T06:34:15.764Z,12.00
2023-05-14T06:36:42.618Z,12.45
2023-05-14T06:39:09.857Z,12.98
2023-05-14T06:41:36.715Z,12.75
2023-05-14T06:44:03.726Z,12.90
2023-05-14T06:46:30.661Z,12.25
2023-05-14T06:48:59.361Z,11.45
2023-05-14T06:51:26.475Z,12.20
2023-05-14T06:53:54.320Z,12.38
2023-05-14T06:56:22.025Z,12.20
2023-05-14T06:58:48.947Z,12.75
2023-05-14T07:01:16.782Z,12.68
2023-05-14T07:03:43.673Z,11.90
2023-05-14T07:06:12.511Z,11.70
2023-05-14T07:08:40.846Z,12.95
2023-05-14T07:11:07.678Z,11.57
2023-05-14T07:13:34.504Z,12.57
2023-05-14T07:16:01.398Z,11.82
2023-05-14T07:18:28.912Z,11.45
2023-05-14T07:20:55.823Z,12.82
2023-05-14T07:23:22.717Z,11.43
2023-05-14T07:25:49.655Z,12.02
2023-05-14T07:28:16.474Z,12.15
2023-05-14T07:30:43.350Z,12.10
2023-05-14T07:33:10.153Z,12.35
2023-05-14T07:35:36.992Z,12.45
2023-05-14T07:38:05.675Z,12.40
2023-05-14T07:40:32.446Z,12.38
2023-05-14T07:42:59.222Z,12.23
2023-05-14T07:45:26.023Z,11.95
2023-05-14T07:47:52.964Z,11.10
2023-05-14T07:50:19.857Z,11.82
2023-05-14T07:52:46.751Z,12.40
2023-05-14T07:55:13.530Z,11.63
2023-05-14T07:57:40.349Z,12.52
2023-05-14T08:00:11.248Z,13.07
2023-05-14T08:02:41.060Z,10.57
2023-05-14T08:05:08.352Z,11.93
2023-05-14T08:07:35.229Z,12.50
2023-05-14T08:10:02.191Z,12.50
2023-05-14T08:12:29.891Z,12.48
2023-05-14T08:14:56.760Z,12.93
2023-05-14T08:17:23.810Z,13.25
2023-05-14T08:19:50.682Z,13.00
2023-05-14T08:22:17.477Z,12.88
2023-05-14T08:24:44.343Z,12.52
2023-05-14T08:27:11.174Z,12.48
2023-05-14T08:29:37.956Z,13.02
2023-05-14T08:32:15.474Z,12.85
2023-05-14T08:34:49.370Z,12.63
2023-05-14T08:37:16.221Z,13.75
2023-05-14T08:39:43.019Z,13.38
2023-05-14T08:42:09.936Z,13.15
2023-05-14T08:44:39.922Z,11.90
2023-05-14T08:47:06.742Z,11.90
2023-05-14T08:49:43.466Z,12.70
2023-05-14T08:52:10.706Z,12.45
2023-05-14T08:54:37.728Z,13.05
2023-05-14T08:57:05.146Z,12.25
2023-05-14T08:59:33.095Z,12.30
2023-05-14T09:02:03.019Z,12.98
2023-05-14T09:04:30.111Z,13.52
2023-05-14T09:06:56.989Z,12.45
2023-05-14T09:09:23.947Z,12.52
2023-05-14T09:11:52.060Z,10.35
2023-05-14T09:14:19.130Z,11.70
2023-05-14T09:16:48.138Z,11.25
2023-05-14T09:19:15.738Z,11.10
2023-05-14T09:21:42.853Z,11.07
2023-05-14T09:24:09.721Z,11.75
2023-05-14T09:26:36.594Z,11.30
2023-05-14T09:29:03.781Z,10.95
2023-05-14T09:31:31.898Z,9.80
2023-05-14T09:33:59.287Z,10.48
2023-05-14T09:36:27.210Z,10.02
2023-05-14T09:38:57.785Z,10.95
2023-05-14T09:41:24.994Z,11.05
2023-05-14T09:43:51.997Z,11.05
2023-05-14T09:46:18.774Z,12.38
2023-05-14T09:48:48.576Z,11.63
2023-05-14T09:51:17.573Z,11.25
2023-05-14T09:53:44.704Z,10.98
2023-05-14T09:56:11.611Z,11.18
2023-05-14T09:58:38.462Z,11.43
2023-05-14T10:01:05.385Z,10.88
2023-05-14T10:03:32.302Z,11.88
2023-05-14T10:06:04.741Z,12.10
2023-05-14T10:08:34.597Z,11.82
2023-05-14T10:11:03.668Z,12.52
2023-05-14T10:13:40.640Z,11.15
2023-05-14T10:16:15.921Z,10.50
2023-05-14T10:18:48.571Z,10.80
2023-05-14T10:21:15.738Z,10.85
2023-05-14T10:23:42.646Z,11.32
2023-05-14T10:26:09.552Z,10.70
2023-05-14T10:28:36.679Z,11.50
2023-05-14T10:31:03.781Z,11.07
2023-05-14T10:33:30.858Z,10.43
2023-05-14T10:36:02.148Z,10.90
2023-05-14T10:38:32.826Z,12.10
2023-05-14T10:41:01.969Z,11.98
2023-05-14T10:43:30.705Z,11.32
2023-05-14T10:45:58.477Z,10.90
2023-05-14T10:48:25.515Z,11.23
2023-05-14T10:50:52.507Z,10.73
2023-05-14T10:53:19.512Z,10.73
2023-05-14T10:55:46.328Z,12.18
2023-05-14T10:58:13.235Z,10.68
2023-05-14T11:00:40.807Z,11.95
2023-05-14T11:03:07.849Z,13.27
2023-05-14T11:05:37.240Z,10.70
2023-05-14T11:08:06.783Z,10.55
2023-05-14T11:10:33.757Z,11.15
2023-05-14T11:13:00.686Z,11.20
2023-05-14T11:15:28.498Z,12.07
2023-05-14T11:17:55.396Z,11.63
2023-05-14T11:20:22.382Z,12.20
2023-05-14T11:22:51.755Z,11.25
2023-05-14T11:25:18.967Z,11.30
2023-05-14T11:27:46.629Z,10.80
2023-05-14T11:30:17.588Z,11.88
2023-05-14T11:32:45.761Z,10.15
2023-05-14T11:35:13.477Z,11.10
2023-05-14T11:37:40.361Z,9.73
2023-05-14T11:40:09.877Z,12.35
2023-05-14T11:42:37.218Z,10.52
2023-05-14T11:45:04.510Z,10.35
2023-05-14T11:47:31.892Z,10.02
2023-05-14T11:49:59.851Z,10.25
2023-05-14T11:52:26.675Z,10.95
2023-05-14T11:54:53.542Z,10.77
2023-05-14T11:57:23.780Z,11.05
2023-05-14T11:59:57.126Z,11.73
2023-05-14T12:04:52.269Z,10.05
2023-05-14T12:07:19.467Z,11.38
2023-05-14T12:09:50.598Z,11.00
2023-05-14T12:12:23.340Z,12.45
2023-05-14T12:14:50.572Z,11.43
2023-05-14T12:17:23.818Z,13.80
2023-05-14T12:19:53.876Z,11.43
2023-05-14T12:22:22.155Z,11.60
2023-05-14T12:25:00.679Z,10.48
2023-05-14T12:27:28.179Z,22.92
2023-05-14T12:30:20.508Z,11.07
2023-05-14T12:32:52.744Z,10.48
2023-05-14T12:35:21.153Z,12.02
2023-05-14T12:37:48.040Z,15.10
2023-05-14T12:40:15.008Z,10.98
2023-05-14T12:42:42.146Z,10.77
2023-05-14T12:45:09.245Z,12.20
2023-05-14T12:47:36.783Z,11.70
2023-05-14T12:50:04.201Z,11.43
2023-05-14T12:55:01.523Z,11.80
2023-05-14T12:57:29.741Z,9.90
2023-05-14T12:59:56.831Z,10.90
2023-05-14T13:02:23.686Z,16.10
2023-05-14T13:04:50.566Z,10.15
2023-05-14T13:07:17.342Z,10.40
2023-05-14T13:09:44.093Z,11.35
2023-05-14T13:12:11.043Z,14.88
2023-05-14T13:14:37.813Z,11.23
2023-05-14T13:17:05.215Z,14.38
2023-05-14T13:19:32.094Z,12.00
2023-05-14T13:21:59.168Z,11.15
2023-05-14T13:24:26.125Z,10.77
2023-05-14T13:26:52.989Z,42.05
2023-05-14T13:29:19.802Z,21.95
2023-05-14T13:31:46.623Z,16.35
2023-05-14T13:34:13.453Z,18.38
2023-05-14T13:36:43.521Z,14.45
2023-05-14T13:39:14.425Z,13.75
2023-05-14T13:41:41.675Z,12.05
2023-05-14T13:44:08.531Z,11.48
2023-05-14T13:46:35.385Z,13.23
2023-05-14T13:49:02.357Z,11.90
2023-05-14T13:51:29.224Z,12.02
2023-05-14T13:53:56.256Z,12.18
2023-05-14T13:56:23.382Z,11.55
2023-05-14T13:58:50.240Z,11.68
2023-05-14T14:01:17.021Z,10.52
2023-05-14T14:03:43.866Z,10.95
2023-05-14T14:06:10.812Z,10.02
2023-05-14T14:08:37.741Z,10.63
2023-05-14T14:11:04.800Z,9.88
2023-05-14T14:13:31.748Z,9.60
2023-05-14T14:15:58.611Z,9.57
2023-05-14T14:18:25.579Z,10.63
2023-05-14T14:20:52.603Z,10.32
2023-05-14T14:23:19.668Z,9.55
2023-05-14T14:25:46.602Z,9.27
2023-05-14T14:28:13.794Z,9.07
2023-05-14T14:30:41.096Z,8.70
2023-05-14T14:33:08.108Z,8.07
2023-05-14T14:35:35.823Z,7.22
2023-05-14T14:38:02.805Z,7.38
2023-05-14T14:40:30.173Z,7.47
2023-05-14T14:42:56.962Z,7.90
2023-05-14T14:45:23.875Z,7.57
2023-05-14T14:47:51.227Z,7.80
2023-05-14T14:50:18.158Z,7.25
2023-05-14T14:52:46.036Z,6.65
2023-05-14T14:55:13.100Z,6.38
2023-05-14T14:57:40.032Z,6.65
2023-05-14T15:00:07.544Z,7.03
2023-05-14T15:02:34.946Z,7.20
2023-05-14T15:05:01.932Z,8.30
2023-05-14T15:07:32.715Z,7.40
2023-05-14T15:09:59.741Z,7.47
2023-05-14T15:12:26.663Z,6.53
2023-05-14T15:14:53.479Z,7.28
2023-05-14T15:17:22.817Z,7.43
2023-05-14T15:19:52.471Z,6.35
2023-05-14T15:22:19.271Z,7.32
2023-05-14T15:24:46.021Z,6.38
2023-05-14T15:27:12.811Z,6.25
2023-05-14T15:29:39.884Z,6.72
2023-05-14T15:32:07.082Z,6.43
2023-05-14T15:34:33.832Z,6.30
2023-05-14T15:37:00.806Z,6.65
2023-05-14T15:39:29.584Z,6.75
2023-05-14T15:41:56.941Z,6.20
2023-05-14T15:44:23.794Z,10.23
2023-05-14T15:46:51.020Z,7.97
2023-05-14T15:49:17.878Z,6.85
2023-05-14T15:51:44.662Z,10.00
2023-05-14T15:54:11.513Z,15.27
2023-05-14T15:56:38.324Z,8.38
2023-05-14T15:59:05.142Z,9.35
2023-05-14T16:01:31.996Z,13.43
2023-05-14T16:03:58.906Z,7.45
2023-05-14T16:06:26.168Z,9.63
2023-05-14T16:08:53.253Z,7.18
2023-05-14T16:11:20.088Z,7.72
2023-05-14T16:13:47.025Z,7.70
2023-05-14T16:16:13.833Z,7.85
2023-05-14T16:18:42.706Z,7.05
2023-05-14T16:21:09.513Z,7.55
2023-05-14T16:23:36.262Z,6.88
2023-05-14T16:26:03.019Z,6.85
2023-05-14T16:28:32.414Z,6.05
2023-05-14T16:31:00.338Z,10.30
2023-05-14T16:33:29.134Z,7.88
2023-05-14T16:35:55.927Z,6.97
2023-05-14T16:38:22.740Z,7.13
2023-05-14T16:40:49.625Z,6.88
2023-05-14T16:43:16.547Z,7.15
2023-05-14T16:45:45.892Z,6.78
2023-05-14T16:48:23.785Z,6.78
2023-05-14T16:50:51.505Z,7.25
2023-05-14T16:53:18.428Z,7.18
2023-05-14T16:55:45.308Z,6.10
2023-05-14T16:58:12.198Z,6.55
2023-05-14T17:00:39.028Z,6.10
2023-05-14T17:03:06.700Z,5.65
2023-05-14T17:05:34.369Z,5.68
2023-05-14T17:08:01.859Z,6.88
2023-05-14T17:10:30.261Z,5.82
2023-05-14T17:12:57.145Z,5.35
2023-05-14T17:15:24.189Z,5.53
2023-05-14T17:17:51.282Z,4.90
2023-05-14T17:20:24.395Z,5.55
2023-05-14T17:25:18.291Z,5.07
2023-05-14T17:27:45.128Z,5.03
2023-05-14T17:30:12.371Z,4.75
2023-05-14T17:32:39.311Z,6.00
2023-05-14T17:35:06.437Z,6.05
2023-05-14T17:37:33.333Z,6.07
2023-05-14T17:40:01.040Z,6.05
2023-05-14T17:42:27.779Z,14.80
2023-05-14T17:44:54.571Z,7.15
2023-05-14T17:47:21.405Z,6.82
2023-05-14T17:49:48.252Z,5.30
2023-05-14T17:52:15.149Z,5.63
2023-05-14T17:54:41.942Z,5.07
2023-05-14T17:57:08.779Z,5.60
2023-05-14T17:59:35.564Z,5.25
2023-05-14T18:02:02.428Z,5.10
2023-05-14T18:04:29.285Z,4.38
2023-05-14T18:06:56.195Z,4.95
2023-05-14T18:09:22.999Z,4.18
2023-05-14T18:11:49.843Z,4.43
2023-05-14T18:14:17.656Z,4.25
2023-05-14T18:16:44.778Z,4.68
2023-05-14T18:19:11.835Z,3.83
2023-05-14T18:21:38.772Z,4.90
2023-05-14T18:24:06.082Z,5.35
2023-05-14T18:26:34.374Z,6.10
2023-05-14T18:29:01.310Z,6.55
2023-05-14T18:31:28.542Z,7.90
2023-05-14T18:33:55.702Z,7.32
2023-05-14T18:36:22.912Z,7.60
2023-05-14T18:38:49.785Z,6.78
2023-05-14T18:41:16.592Z,6.88
2023-05-14T18:43:43.534Z,7.70
2023-05-14T18:46:12.286Z,7.10
2023-05-14T18:48:39.740Z,7.85
2023-05-14T18:51:06.658Z,8.65
2023-05-14T18:53:33.717Z,10.70
2023-05-14T18:56:03.201Z,13.00
2023-05-14T18:58:30.090Z,15.70
2023-05-14T19:00:59.028Z,14.27
2023-05-14T19:03:26.131Z,14.63
2023-05-14T19:05:53.735Z,14.60
2023-05-14T19:08:20.668Z,14.95
2023-05-14T19:10:47.538Z,14.95
2023-05-14T19:13:16.550Z,14.75
2023-05-14T19:15:43.627Z,14.77
2023-05-14T19:18:10.889Z,15.95
2023-05-14T19:20:37.770Z,16.00
2023-05-14T19:23:04.608Z,15.98
2023-05-14T19:25:31.519Z,15.82
2023-05-14T19:28:01.448Z,15.77
2023-05-14T19:30:28.307Z,16.23
2023-05-14T19:32:55.222Z,17.58
2023-05-14T19:35:22.289Z,16.65
2023-05-14T19:37:49.328Z,16.33
2023-05-14T19:40:16.197Z,15.68
2023-05-14T19:42:44.204Z,18.15
2023-05-14T19:45:11.494Z,17.48
2023-05-14T19:47:38.438Z,17.55
2023-05-14T19:50:05.793Z,16.58
2023-05-14T19:52:32.642Z,17.08
2023-05-14T19:54:59.442Z,14.45
2023-05-14T19:57:26.739Z,11.30
2023-05-14T19:59:53.702Z,8.77
2023-05-14T20:02:21.810Z,8.20
2023-05-14T20:04:49.528Z,7.75
2023-05-14T20:07:17.829Z,7.82
2023-05-14T20:09:44.816Z,6.40
2023-05-14T20:12:12.905Z,4.40
2023-05-14T20:14:40.984Z,3.92
2023-05-14T20:17:07.954Z,2.80
2023-05-14T20:19:35.083Z,2.88
2023-05-14T20:22:01.844Z,2.70
2023-05-14T20:24:28.992Z,2.70
2023-05-14T20:26:56.699Z,5.25
2023-05-14T20:29:23.599Z,4.78
2023-05-14T20:31:50.443Z,4.82
2023-05-14T20:34:17.181Z,6.60
2023-05-14T20:36:44.366Z,6.28
2023-05-14T20:39:11.788Z,3.78
2023-05-14T20:41:38.679Z,2.97
2023-05-14T20:44:05.735Z,3.42
2023-05-14T20:46:32.676Z,4.20
2023-05-14T20:49:00.950Z,4.10
2023-05-14T20:51:28.562Z,3.88
2023-05-14T20:53:55.406Z,2.88
2023-05-14T20:56:22.586Z,2.70
2023-05-14T20:58:49.480Z,2.22
2023-05-14T21:01:16.281Z,2.38
2023-05-14T21:03:43.829Z,2.47
2023-05-14T21:06:10.886Z,3.00
2023-05-14T21:08:39.240Z,1.90
2023-05-14T21:11:06.499Z,1.40
2023-05-14T21:13:33.340Z,1.30
2023-05-14T21:16:00.440Z,2.38
2023-05-14T21:18:30.708Z,1.75
2023-05-14T21:20:57.681Z,1.38
2023-05-14T21:23:24.557Z,1.45
2023-05-14T21:25:54.601Z,1.27
2023-05-14T21:28:24.521Z,0.93
2023-05-14T21:30:52.998Z,0.82
2023-05-14T21:33:19.922Z,1.15
2023-05-14T21:35:46.736Z,1.00
2023-05-14T21:38:13.541Z,0.82
2023-05-14T21:40:40.377Z,0.95
2023-05-14T21:43:07.155Z,0.93
2023-05-14T21:45:33.979Z,1.10
2023-05-14T21:48:00.842Z,0.90
2023-05-14T21:50:27.786Z,0.85
2023-05-14T21:52:54.568Z,0.90
2023-05-14T21:55:21.487Z,0.90
2023-05-14T21:57:48.342Z,0.77
2023-05-14T22:00:18.652Z,0.80
2023-05-14T22:02:45.453Z,0.85
2023-05-14T22:05:12.421Z,0.80
2023-05-14T22:07:39.330Z,1.52
2023-05-14T22:10:07.141Z,0.80
2023-05-14T22:12:33.949Z,0.77
2023-05-14T22:15:00.776Z,0.60
2023-05-14T22:17:30.351Z,0.70
2023-05-14T22:19:57.204Z,0.77
2023-05-14T22:22:24.161Z,0.80
2023-05-14T22:24:50.981Z,0.70
2023-05-14T22:27:18.088Z,1.02
2023-05-14T22:29:44.939Z,0.60
2023-05-14T22:32:11.711Z,1.05
2023-05-14T22:34:38.539Z,0.60
2023-05-14T22:37:06.162Z,0.90
2023-05-14T22:39:32.904Z,0.60
2023-05-14T22:41:59.848Z,0.80
2023-05-14T22:44:29.107Z,0.77
2023-05-14T22:46:56.757Z,0.88
2023-05-14T22:49:23.664Z,1.10
2023-05-14T22:51:54.109Z,0.70
2023-05-14T22:54:21.214Z,0.90
2023-05-14T22:56:48.036Z,0.95
2023-05-14T22:59:14.804Z,0.80
2023-05-14T23:01:41.721Z,1.33
2023-05-14T23:04:08.602Z,0.70
2023-05-14T23:06:35.440Z,1.02
2023-05-14T23:09:02.361Z,0.80
2023-05-14T23:11:29.368Z,0.70
2023-05-14T23:13:56.165Z,1.00
2023-05-14T23:16:22.915Z,1.27
2023-05-14T23:18:49.873Z,0.80
2023-05-14T23:21:16.771Z,0.80
2023-05-14T23:23:43.662Z,1.50
2023-05-14T23:26:10.530Z,1.00
2023-05-14T23:28:37.365Z,0.98
2023-05-14T23:31:04.232Z,1.20
2023-05-14T23:33:30.997Z,0.80
2023-05-14T23:35:57.777Z,1.05
2023-05-14T23:38:24.510Z,1.20
2023-05-14T23:40:51.273Z,1.17
2023-05-14T23:43:18.097Z,1.52
2023-05-14T23:45:44.950Z,1.05
2023-05-14T23:48:11.723Z,1.10
2023-05-14T23:50:38.455Z,1.15
2023-05-14T23:53:05.225Z,1.33
2023-05-14T23:55:32.007Z,1.20
2023-05-14T23:57:58.792Z,1.55
